createdAt,value
2022-11-09T00:00:46.299Z,81.68
2022-11-09T00:03:14.539Z,81.57
2022-11-09T00:05:43.137Z,81.45
2022-11-09T00:08:12.359Z,81.45
2022-11-09T00:10:41.648Z,81.24
2022-11-09T00:13:09.609Z,81.59
2022-11-09T00:15:37.514Z,81.24
2022-11-09T00:18:05.236Z,81.22
2022-11-09T00:20:33.163Z,81.41
2022-11-09T00:23:01.102Z,81.50
2022-11-09T00:25:28.964Z,81.57
2022-11-09T00:27:58.349Z,81.41
2022-11-09T00:30:27.052Z,81.41
2022-11-09T00:32:54.964Z,81.48
2022-11-09T00:35:22.729Z,81.60
2022-11-09T00:37:50.669Z,81.38
2022-11-09T00:40:18.798Z,81.37
2022-11-09T00:42:47.141Z,81.47
2022-11-09T00:45:16.483Z,81.78
2022-11-09T00:47:44.308Z,81.81
2022-11-09T00:50:12.101Z,81.77
2022-11-09T00:52:40.048Z,81.79
2022-11-09T00:55:08.430Z,81.91
2022-11-09T00:57:36.241Z,82.10
2022-11-09T01:00:04.607Z,82.00
2022-11-09T01:02:34.058Z,81.95
2022-11-09T01:05:02.162Z,81.95
2022-11-09T01:07:30.281Z,82.10
2022-11-09T01:09:58.265Z,82.19
2022-11-09T01:12:26.370Z,82.19
2022-11-09T01:14:54.280Z,81.99
2022-11-09T01:17:22.478Z,81.94
2022-11-09T01:19:51.865Z,82.12
2022-11-09T01:22:20.235Z,82.12
2022-11-09T01:24:47.939Z,82.04
2022-11-09T01:27:15.962Z,82.30
2022-11-09T01:29:43.707Z,82.52
2022-11-09T01:32:11.700Z,82.40
2022-11-09T01:34:40.526Z,82.70
2022-11-09T01:37:09.761Z,82.60
2022-11-09T01:39:37.556Z,82.81
2022-11-09T01:42:05.559Z,83.00
2022-11-09T01:44:34.858Z,82.96
2022-11-09T01:47:04.931Z,82.87
2022-11-09T01:49:41.003Z,82.99
2022-11-09T01:52:14.448Z,82.97
2022-11-09T01:54:45.255Z,83.03
2022-11-09T01:57:16.853Z,83.08
2022-11-09T01:59:48.902Z,82.92
2022-11-09T02:02:17.193Z,83.05
2022-11-09T02:04:46.841Z,83.25
2022-11-09T02:07:16.460Z,83.36
2022-11-09T02:09:48.036Z,83.31
2022-11-09T02:12:16.629Z,83.21
2022-11-09T02:14:45.359Z,83.36
2022-11-09T02:17:13.416Z,83.85
2022-11-09T02:19:41.168Z,83.53
2022-11-09T02:22:10.519Z,83.84
2022-11-09T02:24:38.377Z,83.86
2022-11-09T02:27:07.179Z,84.06
2022-11-09T02:29:36.932Z,84.46
2022-11-09T02:32:08.559Z,84.95
2022-11-09T02:34:36.311Z,84.82
2022-11-09T02:37:04.242Z,84.89
2022-11-09T02:39:33.456Z,85.05
2022-11-09T02:42:05.068Z,85.27
2022-11-09T02:44:37.174Z,85.27
2022-11-09T02:47:05.360Z,85.35
2022-11-09T02:49:33.187Z,85.14
2022-11-09T02:52:01.121Z,85.25
2022-11-09T02:54:28.881Z,85.29
2022-11-09T02:56:58.278Z,85.14
2022-11-09T02:59:26.355Z,85.27
2022-11-09T03:01:54.325Z,85.26
2022-11-09T03:04:22.082Z,85.12
2022-11-09T03:06:50.000Z,85.58
2022-11-09T03:09:18.336Z,85.76
2022-11-09T03:11:46.391Z,85.96
2022-11-09T03:14:15.740Z,85.83
2022-11-09T03:16:49.167Z,85.46
2022-11-09T03:19:18.141Z,85.74
2022-11-09T03:21:46.490Z,85.70
2022-11-09T03:24:14.252Z,85.51
2022-11-09T03:26:42.092Z,85.51
2022-11-09T03:29:09.810Z,85.46
2022-11-09T03:31:39.947Z,85.28
2022-11-09T03:34:07.825Z,85.27
2022-11-09T03:36:36.054Z,85.23
2022-11-09T03:39:04.088Z,85.12
2022-11-09T03:41:31.931Z,85.36
2022-11-09T03:43:59.949Z,84.99
2022-11-09T03:46:27.888Z,84.96
2022-11-09T03:48:57.391Z,84.89
2022-11-09T03:51:25.265Z,84.91
2022-11-09T03:53:53.266Z,84.97
2022-11-09T03:56:21.117Z,85.11
2022-11-09T03:58:48.943Z,84.92
2022-11-09T04:01:17.066Z,85.07
2022-11-09T04:03:44.969Z,84.82
2022-11-09T04:06:14.153Z,85.20
2022-11-09T04:08:44.668Z,85.42
2022-11-09T04:11:15.375Z,85.82
2022-11-09T04:13:43.442Z,85.54
2022-11-09T04:16:11.405Z,85.48
2022-11-09T04:18:39.236Z,85.55
2022-11-09T04:21:07.058Z,85.47
2022-11-09T04:23:36.251Z,85.41
2022-11-09T04:26:04.065Z,85.43
2022-11-09T04:28:31.807Z,85.30
2022-11-09T04:31:02.172Z,84.94
2022-11-09T04:33:30.103Z,85.11
2022-11-09T04:36:03.613Z,85.26
2022-11-09T04:38:31.900Z,85.67
2022-11-09T04:41:03.003Z,85.90
2022-11-09T04:43:30.765Z,86.17
2022-11-09T04:46:01.144Z,85.86
2022-11-09T04:48:29.442Z,85.99
2022-11-09T04:51:01.726Z,85.79
2022-11-09T04:53:29.714Z,85.94
2022-11-09T04:55:57.981Z,85.72
2022-11-09T04:58:27.776Z,85.61
2022-11-09T05:00:55.773Z,85.55
2022-11-09T05:03:23.631Z,85.27
2022-11-09T05:05:51.443Z,85.06
2022-11-09T05:08:19.094Z,85.09
2022-11-09T05:10:46.913Z,85.15
2022-11-09T05:13:15.086Z,84.63
2022-11-09T05:15:44.222Z,84.41
2022-11-09T05:18:11.892Z,84.20
2022-11-09T05:20:39.596Z,84.22
2022-11-09T05:23:24.884Z,83.77
2022-11-09T05:25:52.583Z,83.11
2022-11-09T05:28:20.447Z,83.12
2022-11-09T05:30:49.559Z,82.29
2022-11-09T05:33:18.173Z,82.12
2022-11-09T05:35:46.176Z,82.16
2022-11-09T05:38:13.857Z,82.75
2022-11-09T05:40:41.969Z,83.30
2022-11-09T05:43:09.776Z,83.76
2022-11-09T05:45:44.759Z,83.80
2022-11-09T05:48:15.009Z,84.21
2022-11-09T05:50:43.404Z,84.54
2022-11-09T05:53:12.223Z,84.66
2022-11-09T05:55:40.115Z,85.32
2022-11-09T05:58:08.386Z,85.07
2022-11-09T06:00:36.273Z,85.12
2022-11-09T06:03:04.591Z,84.96
2022-11-09T06:05:34.994Z,84.91
2022-11-09T06:08:06.711Z,84.99
2022-11-09T06:10:34.631Z,85.08
2022-11-09T06:13:03.195Z,85.09
2022-11-09T06:15:31.070Z,85.02
2022-11-09T06:17:59.649Z,85.16
2022-11-09T06:20:28.410Z,84.75
2022-11-09T06:23:03.116Z,84.54
2022-11-09T06:25:33.134Z,83.98
2022-11-09T06:28:01.458Z,83.47
2022-11-09T06:30:30.374Z,83.34
2022-11-09T06:33:01.301Z,83.07
2022-11-09T06:35:29.356Z,82.67
2022-11-09T06:37:59.663Z,82.43
2022-11-09T06:40:27.506Z,82.36
2022-11-09T06:42:59.143Z,82.11
2022-11-09T06:45:27.793Z,82.29
2022-11-09T06:47:56.947Z,82.14
2022-11-09T06:50:24.859Z,82.44
2022-11-09T06:52:57.374Z,81.98
2022-11-09T06:55:26.506Z,81.41
2022-11-09T06:57:54.481Z,81.13
2022-11-09T07:00:23.452Z,81.33
2022-11-09T07:02:51.423Z,80.85
2022-11-09T07:05:19.424Z,79.94
2022-11-09T07:07:47.835Z,79.64
2022-11-09T07:10:16.556Z,78.77
2022-11-09T07:12:45.879Z,77.66
2022-11-09T07:15:14.946Z,76.63
2022-11-09T07:17:43.000Z,76.43
2022-11-09T07:20:13.500Z,76.32
2022-11-09T07:22:42.045Z,77.01
2022-11-09T07:25:11.184Z,77.55
2022-11-09T07:27:39.046Z,77.96
2022-11-09T07:30:09.351Z,78.29
2022-11-09T07:33:07.401Z,78.64
2022-11-09T07:35:25.872Z,78.43
2022-11-09T07:37:53.871Z,78.01
2022-11-09T07:40:21.679Z,78.13
2022-11-09T07:42:49.373Z,78.42
2022-11-09T07:45:18.939Z,78.18
2022-11-09T07:47:46.748Z,78.38
2022-11-09T07:50:14.570Z,78.00
2022-11-09T07:52:42.562Z,77.66
2022-11-09T07:55:10.647Z,77.18
2022-11-09T07:57:38.719Z,77.24
2022-11-09T08:00:09.835Z,77.01
2022-11-09T08:02:38.953Z,76.87
2022-11-09T08:05:07.507Z,75.85
2022-11-09T08:07:35.318Z,75.37
2022-11-09T08:10:03.476Z,74.23
2022-11-09T08:12:36.702Z,73.38
2022-11-09T08:15:07.780Z,72.74
2022-11-09T08:17:35.802Z,72.31
2022-11-09T08:20:05.437Z,71.60
2022-11-09T08:22:33.312Z,71.24
2022-11-09T08:25:01.116Z,71.12
2022-11-09T08:27:31.519Z,70.51
2022-11-09T08:29:59.434Z,69.79
2022-11-09T08:32:27.100Z,69.96
2022-11-09T08:34:54.797Z,69.16
2022-11-09T08:37:24.336Z,69.12
2022-11-09T08:39:54.484Z,68.46
2022-11-09T08:42:28.965Z,68.68
2022-11-09T08:44:56.809Z,68.65
2022-11-09T08:47:24.502Z,68.75
2022-11-09T08:49:52.139Z,69.19
2022-11-09T08:52:20.085Z,69.33
2022-11-09T08:54:49.145Z,68.55
2022-11-09T08:57:23.836Z,69.24
2022-11-09T08:59:51.883Z,69.51
2022-11-09T09:02:20.796Z,69.65
2022-11-09T09:04:48.728Z,70.14
2022-11-09T09:07:16.539Z,70.28
2022-11-09T09:09:44.976Z,70.35
2022-11-09T09:12:15.756Z,70.29
2022-11-09T09:14:43.444Z,70.31
2022-11-09T09:17:11.502Z,70.28
2022-11-09T09:19:39.191Z,70.28
2022-11-09T09:22:06.942Z,69.87
2022-11-09T09:24:35.266Z,69.74
2022-11-09T09:27:03.756Z,69.91
2022-11-09T09:29:32.793Z,68.98
2022-11-09T09:32:00.466Z,68.42
2022-11-09T09:34:28.629Z,67.51
2022-11-09T09:36:56.627Z,66.19
2022-11-09T09:39:24.759Z,65.48
2022-11-09T09:41:53.973Z,65.79
2022-11-09T09:44:26.552Z,65.75
2022-11-09T09:47:02.625Z,65.76
2022-11-09T09:49:32.418Z,65.40
2022-11-09T09:52:04.683Z,64.72
2022-11-09T09:54:35.207Z,64.20
2022-11-09T09:57:03.988Z,63.89
2022-11-09T09:59:36.750Z,63.25
2022-11-09T10:02:09.178Z,63.47
2022-11-09T10:04:39.583Z,63.47
2022-11-09T10:07:12.522Z,63.38
2022-11-09T10:09:53.675Z,63.82
2022-11-09T10:12:37.282Z,64.32
2022-11-09T10:15:14.130Z,64.20
2022-11-09T10:17:50.125Z,63.72
2022-11-09T10:20:29.365Z,63.70
2022-11-09T10:23:07.986Z,62.68
2022-11-09T10:28:47.627Z,61.84
2022-11-09T10:31:22.135Z,60.69
2022-11-09T10:33:55.263Z,60.63
2022-11-09T10:36:26.710Z,59.69
2022-11-09T10:38:56.718Z,59.69
2022-11-09T10:41:32.789Z,59.83
2022-11-09T10:44:01.127Z,59.23
2022-11-09T10:46:29.083Z,58.78
2022-11-09T10:48:58.118Z,58.60
2022-11-09T10:51:34.894Z,57.99
2022-11-09T10:54:16.336Z,57.70
2022-11-09T10:59:42.979Z,58.43
2022-11-09T11:02:38.963Z,58.57
2022-11-09T11:05:28.327Z,58.17
2022-11-09T11:07:55.994Z,59.06
2022-11-09T11:10:24.342Z,58.87
2022-11-09T11:13:23.368Z,58.94
2022-11-09T11:15:51.794Z,58.47
2022-11-09T11:18:25.079Z,58.68
2022-11-09T11:21:18.742Z,57.46
2022-11-09T11:24:05.346Z,56.72
2022-11-09T11:26:37.835Z,56.84
2022-11-09T11:29:10.213Z,56.51
2022-11-09T11:31:39.512Z,56.84
2022-11-09T11:34:10.482Z,57.05
2022-11-09T11:36:49.474Z,57.14
2022-11-09T11:39:32.712Z,56.93
2022-11-09T11:42:24.162Z,55.04
2022-11-09T11:45:33.398Z,54.95
2022-11-09T11:47:59.943Z,54.36
2022-11-09T11:50:34.040Z,55.42
2022-11-09T11:53:24.195Z,53.98
2022-11-09T11:56:06.742Z,55.43
2022-11-09T11:58:48.756Z,57.07
2022-11-09T12:01:30.175Z,57.62
2022-11-09T12:04:05.011Z,58.19
2022-11-09T12:07:01.918Z,58.47
2022-11-09T12:09:45.252Z,55.33
2022-11-09T12:12:20.504Z,52.43
2022-11-09T12:14:58.637Z,52.70
2022-11-09T12:17:31.537Z,53.39
2022-11-09T12:20:16.584Z,53.45
2022-11-09T12:22:55.771Z,53.73
2022-11-09T12:25:29.541Z,52.81
2022-11-09T12:28:13.824Z,53.65
2022-11-09T12:30:53.740Z,54.30
2022-11-09T12:33:33.311Z,54.75
2022-11-09T12:36:05.521Z,55.34
2022-11-09T12:38:36.670Z,54.64
2022-11-09T12:41:11.319Z,53.90
2022-11-09T12:43:46.469Z,53.46
2022-11-09T12:46:14.770Z,52.75
2022-11-09T12:48:42.466Z,52.64
2022-11-09T12:51:12.923Z,53.23
2022-11-09T12:53:41.265Z,54.27
2022-11-09T12:56:18.965Z,54.23
2022-11-09T12:58:47.502Z,53.64
2022-11-09T13:01:45.799Z,53.57
2022-11-09T13:04:18.668Z,53.40
2022-11-09T13:07:34.224Z,52.62
2022-11-09T13:10:04.035Z,52.48
2022-11-09T13:12:39.706Z,52.57
2022-11-09T13:15:23.198Z,52.70
2022-11-09T13:18:03.679Z,52.38
2022-11-09T13:20:56.800Z,53.24
2022-11-09T13:23:48.124Z,53.47
2022-11-09T13:26:26.535Z,53.45
2022-11-09T13:29:26.872Z,53.69
2022-11-09T13:32:34.024Z,54.00
2022-11-09T13:35:08.738Z,54.67
2022-11-09T13:38:14.426Z,54.75
2022-11-09T13:40:48.662Z,55.31
2022-11-09T13:43:19.542Z,55.72
2022-11-09T13:45:51.000Z,56.13
2022-11-09T13:48:39.283Z,56.77
2022-11-09T13:51:08.324Z,57.01
2022-11-09T13:53:58.068Z,57.27
2022-11-09T13:56:35.147Z,57.38
2022-11-09T13:59:18.822Z,57.55
2022-11-09T14:01:50.055Z,57.82
2022-11-09T14:04:26.638Z,58.20
2022-11-09T14:07:01.987Z,58.41
2022-11-09T14:09:38.318Z,58.84
2022-11-09T14:12:41.262Z,59.07
2022-11-09T14:19:00.437Z,59.48
2022-11-09T14:21:40.432Z,59.69
2022-11-09T14:24:18.490Z,59.92
2022-11-09T14:27:18.358Z,60.21
2022-11-09T14:29:54.349Z,60.91
2022-11-09T14:32:29.411Z,61.16
2022-11-09T14:35:24.190Z,61.60
2022-11-09T14:37:53.304Z,61.79
2022-11-09T14:40:25.636Z,62.15
2022-11-09T14:42:55.995Z,62.37
2022-11-09T14:45:25.490Z,62.82
2022-11-09T14:47:55.700Z,62.90
2022-11-09T14:50:27.516Z,63.09
2022-11-09T14:52:56.351Z,63.36
2022-11-09T14:55:25.778Z,63.59
2022-11-09T14:57:55.176Z,63.98
2022-11-09T15:00:27.885Z,64.51
2022-11-09T15:02:57.784Z,64.57
2022-11-09T15:05:33.989Z,64.63
2022-11-09T15:08:03.181Z,64.91
2022-11-09T15:10:32.634Z,65.34
2022-11-09T15:13:03.251Z,65.80
2022-11-09T15:15:32.741Z,66.00
2022-11-09T15:18:01.167Z,66.54
2022-11-09T15:20:33.501Z,66.97
2022-11-09T15:23:04.609Z,67.45
2022-11-09T15:25:35.168Z,67.71
2022-11-09T15:28:21.025Z,68.12
2022-11-09T15:31:07.588Z,68.07
2022-11-09T15:33:47.996Z,68.38
2022-11-09T15:36:27.180Z,68.63
2022-11-09T15:39:00.920Z,68.91
2022-11-09T15:41:29.648Z,68.99
2022-11-09T15:43:58.168Z,69.14
2022-11-09T15:46:28.426Z,69.24
2022-11-09T15:48:57.754Z,69.42
2022-11-09T15:51:27.210Z,69.46
2022-11-09T15:53:54.924Z,69.49
2022-11-09T15:56:24.505Z,69.71
2022-11-09T15:58:53.491Z,70.00
2022-11-09T16:01:22.550Z,69.93
2022-11-09T16:03:50.327Z,69.87
2022-11-09T16:06:19.504Z,69.78
2022-11-09T16:08:50.048Z,70.10
2022-11-09T16:11:17.930Z,70.26
2022-11-09T16:13:47.571Z,70.18
2022-11-09T16:16:15.984Z,70.59
2022-11-09T16:18:45.671Z,70.55
2022-11-09T16:21:15.203Z,71.17
2022-11-09T16:23:43.119Z,71.28
2022-11-09T16:26:14.706Z,71.47
2022-11-09T16:28:43.429Z,71.45
2022-11-09T16:31:12.557Z,71.65
2022-11-09T16:33:41.094Z,71.75
2022-11-09T16:36:12.086Z,71.92
2022-11-09T16:38:42.499Z,71.87
2022-11-09T16:41:11.981Z,72.13
2022-11-09T16:43:40.135Z,72.13
2022-11-09T16:46:09.716Z,72.59
2022-11-09T16:48:37.474Z,72.87
2022-11-09T16:51:05.675Z,72.94
2022-11-09T16:53:37.641Z,72.96
2022-11-09T16:56:06.060Z,73.27
2022-11-09T16:58:35.113Z,73.24
2022-11-09T17:01:12.746Z,73.43
2022-11-09T17:03:42.180Z,73.81
2022-11-09T17:06:11.290Z,74.14
2022-11-09T17:08:39.474Z,74.43
2022-11-09T17:11:08.834Z,74.74
2022-11-09T17:13:38.383Z,74.71
2022-11-09T17:16:07.923Z,74.69
2022-11-09T17:18:37.852Z,74.88
2022-11-09T17:21:10.563Z,74.83
2022-11-09T17:23:38.689Z,75.06
2022-11-09T17:26:11.125Z,75.06
2022-11-09T17:28:43.189Z,75.08
2022-11-09T17:31:12.146Z,75.03
2022-11-09T17:33:40.294Z,75.18
2022-11-09T17:36:11.374Z,75.15
2022-11-09T17:38:39.411Z,75.34
2022-11-09T17:41:08.758Z,75.64
2022-11-09T17:43:39.996Z,75.75
2022-11-09T17:46:10.774Z,75.98
2022-11-09T17:48:40.504Z,76.17
2022-11-09T17:51:09.305Z,76.15
2022-11-09T17:53:37.627Z,76.33
2022-11-09T17:56:08.523Z,76.41
2022-11-09T17:58:41.521Z,76.44
2022-11-09T18:01:14.113Z,76.64
2022-11-09T18:03:42.803Z,76.89
2022-11-09T18:06:12.518Z,77.31
2022-11-09T18:08:40.521Z,77.29
2022-11-09T18:11:09.028Z,77.48
2022-11-09T18:13:37.105Z,77.68
2022-11-09T18:16:16.168Z,77.89
2022-11-09T18:18:46.756Z,77.76
2022-11-09T18:21:19.839Z,77.92
2022-11-09T18:23:47.788Z,77.84
2022-11-09T18:26:15.506Z,77.82
2022-11-09T18:28:44.008Z,78.14
2022-11-09T18:31:13.766Z,78.39
2022-11-09T18:33:43.007Z,78.44
2022-11-09T18:36:16.458Z,78.78
2022-11-09T18:38:45.537Z,78.99
2022-11-09T18:41:14.843Z,79.12
2022-11-09T18:43:43.743Z,79.19
2022-11-09T18:46:12.935Z,79.14
2022-11-09T18:48:41.095Z,79.04
2022-11-09T18:51:12.757Z,79.35
2022-11-09T18:53:43.011Z,79.35
2022-11-09T18:56:18.866Z,79.21
2022-11-09T18:58:46.973Z,79.19
2022-11-09T19:01:15.978Z,79.26
2022-11-09T19:03:45.817Z,79.38
2022-11-09T19:06:14.992Z,79.44
2022-11-09T19:09:02.134Z,79.58
2022-11-09T19:11:30.179Z,79.78
2022-11-09T19:13:58.682Z,80.07
2022-11-09T19:16:28.642Z,80.34
2022-11-09T19:18:56.672Z,80.16
2022-11-09T19:21:38.290Z,80.25
2022-11-09T19:24:11.745Z,80.46
2022-11-09T19:26:40.860Z,80.65
2022-11-09T19:29:12.531Z,80.40
2022-11-09T19:31:43.653Z,80.74
2022-11-09T19:34:12.256Z,80.80
2022-11-09T19:36:41.535Z,80.92
2022-11-09T19:39:11.762Z,80.78
2022-11-09T19:41:40.337Z,80.73
2022-11-09T19:44:08.695Z,80.44
2022-11-09T19:46:43.278Z,80.31
2022-11-09T19:49:27.791Z,80.27
2022-11-09T19:51:58.243Z,80.03
2022-11-09T19:54:27.208Z,80.04
2022-11-09T19:56:55.672Z,79.86
2022-11-09T19:59:24.275Z,79.55
2022-11-09T20:01:52.867Z,79.42
2022-11-09T20:04:22.812Z,79.53
2022-11-09T20:06:50.552Z,79.37
2022-11-09T20:09:18.658Z,79.27
2022-11-09T20:12:07.225Z,79.21
2022-11-09T20:14:34.871Z,79.37
2022-11-09T20:17:07.276Z,79.42
2022-11-09T20:19:36.519Z,79.39
2022-11-09T20:22:05.173Z,79.28
2022-11-09T20:24:32.961Z,79.28
2022-11-09T20:27:02.060Z,79.86
2022-11-09T20:29:30.546Z,80.48
2022-11-09T20:31:58.288Z,80.23
2022-11-09T20:34:26.533Z,80.29
2022-11-09T20:36:54.352Z,80.37
2022-11-09T20:39:22.691Z,80.43
2022-11-09T20:41:52.081Z,80.67
2022-11-09T20:44:21.124Z,80.37
2022-11-09T20:47:03.889Z,80.25
2022-11-09T20:49:31.798Z,79.67
2022-11-09T20:52:00.017Z,79.32
2022-11-09T20:54:27.692Z,79.23
2022-11-09T20:56:55.939Z,79.44
2022-11-09T20:59:25.918Z,79.51
2022-11-09T21:01:54.235Z,80.06
2022-11-09T21:04:25.038Z,80.33
2022-11-09T21:06:55.071Z,80.02
2022-11-09T21:09:24.202Z,79.77
2022-11-09T21:12:09.892Z,79.74
2022-11-09T21:14:39.391Z,79.73
2022-11-09T21:17:07.650Z,79.47
2022-11-09T21:19:35.772Z,79.67
2022-11-09T21:22:06.146Z,80.00
2022-11-09T21:24:51.824Z,79.94
2022-11-09T21:27:43.110Z,79.99
2022-11-09T21:30:14.631Z,80.45
2022-11-09T21:32:42.847Z,80.59
2022-11-09T21:35:11.709Z,81.33
2022-11-09T21:37:39.336Z,82.17
2022-11-09T21:40:13.474Z,82.31
2022-11-09T21:42:41.442Z,82.55
2022-11-09T21:45:09.976Z,82.88
2022-11-09T21:47:39.039Z,82.87
2022-11-09T21:50:12.559Z,83.16
2022-11-09T21:52:41.871Z,83.21
2022-11-09T21:55:09.990Z,83.05
2022-11-09T21:57:37.839Z,82.82
2022-11-09T22:00:09.841Z,82.58
2022-11-09T22:02:39.783Z,82.47
2022-11-09T22:05:27.474Z,82.38
2022-11-09T22:07:55.646Z,82.11
2022-11-09T22:10:24.110Z,81.85
2022-11-09T22:13:09.801Z,81.80
2022-11-09T22:15:55.140Z,81.73
2022-11-09T22:18:45.873Z,81.85
2022-11-09T22:21:16.320Z,81.82
2022-11-09T22:23:44.057Z,81.72
2022-11-09T22:26:11.720Z,81.75
2022-11-09T22:28:39.372Z,82.35
2022-11-09T22:31:08.490Z,82.67
2022-11-09T22:33:37.627Z,83.27
2022-11-09T22:36:06.825Z,83.76
2022-11-09T22:38:34.947Z,83.80
2022-11-09T22:41:03.243Z,84.10
2022-11-09T22:43:33.595Z,84.26
2022-11-09T22:46:04.278Z,84.24
2022-11-09T22:48:32.422Z,84.03
2022-11-09T22:51:01.875Z,83.69
2022-11-09T22:53:29.943Z,83.87
2022-11-09T22:55:58.809Z,84.01
2022-11-09T22:58:27.407Z,83.87
2022-11-09T23:00:55.559Z,84.01
2022-11-09T23:03:23.624Z,83.87
2022-11-09T23:05:51.743Z,83.80
2022-11-09T23:08:21.328Z,83.76
2022-11-09T23:10:55.262Z,84.10
2022-11-09T23:13:23.281Z,84.26
2022-11-09T23:15:55.638Z,84.64
2022-11-09T23:18:40.666Z,84.97
2022-11-09T23:21:12.759Z,84.50
2022-11-09T23:23:41.776Z,84.61
2022-11-09T23:26:10.002Z,84.48
2022-11-09T23:28:37.923Z,84.10
2022-11-09T23:31:06.912Z,84.15
2022-11-09T23:33:34.926Z,84.15
2022-11-09T23:36:03.871Z,84.07
2022-11-09T23:38:33.589Z,84.33
2022-11-09T23:41:03.943Z,84.48
2022-11-09T23:43:31.835Z,84.42
2022-11-09T23:46:02.178Z,84.79
2022-11-09T23:48:30.231Z,85.07
2022-11-09T23:50:59.738Z,85.32
2022-11-09T23:53:28.250Z,85.18
2022-11-09T23:55:56.192Z,85.12
2022-11-09T23:58:25.965Z,84.97
